Time;durP1;ratioP1;P1;durP2;ratioP2;P2;SDS_P1;SDS_P2;PMS_P1;PMS_P2;Temp;Humidity;BMP_temperature;BMP_pressure;BME280_temperature;BME280_humidity;BME280_pressure;Samples;Min_cycle;Max_cycle;Signal;HPM_P1;HPM_P2
2023/06/23 00:01:46;;;;;;;10.33;9.43;;;20.50;99.90;;;;;;5073021;28;20502;-78
2023/06/23 00:04:13;;;;;;;10.13;9.33;;;20.50;99.90;;;;;;5092644;28;20469;-78
2023/06/23 00:06:41;;;;;;;8.97;8.20;;;20.50;99.90;;;;;;5097803;28;20465;-78
2023/06/23 00:09:13;;;;;;;9.50;8.67;;;20.40;99.90;;;;;;5089712;28;20528;-78
2023/06/23 00:11:41;;;;;;;8.67;7.97;;;20.50;99.90;;;;;;5073229;28;20458;-78
2023/06/23 00:14:08;;;;;;;9.93;9.13;;;20.40;99.90;;;;;;5073025;28;20528;-78
2023/06/23 00:16:41;;;;;;;9.53;8.63;;;20.40;99.90;;;;;;5061385;28;20478;-78
2023/06/23 00:19:08;;;;;;;8.23;7.53;;;20.30;99.90;;;;;;5074051;28;20963;-78
2023/06/23 00:21:35;;;;;;;10.50;9.70;;;20.40;99.90;;;;;;5071736;28;20543;-78
2023/06/23 00:24:05;;;;;;;12.63;11.53;;;20.30;99.90;;;;;;5072644;28;20528;-78
2023/06/23 00:26:33;;;;;;;11.07;10.10;;;20.30;99.90;;;;;;5071598;28;20948;-78
2023/06/23 00:29:01;;;;;;;9.53;8.73;;;20.30;99.90;;;;;;5073109;28;20549;-78
2023/06/23 00:31:28;;;;;;;9.10;8.30;;;20.30;99.90;;;;;;5072505;28;20545;-78
2023/06/23 00:33:56;;;;;;;9.97;9.07;;;20.40;99.90;;;;;;5074508;28;20489;-78
2023/06/23 00:36:30;;;;;;;13.67;9.90;;;20.40;99.90;;;;;;5076475;28;20477;-78
2023/06/23 00:38:57;;;;;;;9.80;9.00;;;20.40;99.90;;;;;;5076860;28;20468;-78
2023/06/23 00:41:27;;;;;;;9.47;8.77;;;20.40;99.90;;;;;;5076482;28;20474;-78
2023/06/23 00:43:59;;;;;;;8.37;7.70;;;20.30;99.90;;;;;;5074350;28;20469;-77
2023/06/23 00:46:27;;;;;;;9.20;7.50;;;20.30;99.90;;;;;;5075866;28;20489;-77
2023/06/23 00:48:55;;;;;;;9.83;9.00;;;20.30;99.90;;;;;;5077094;28;20543;-78
2023/06/23 00:51:22;;;;;;;7.90;7.20;;;20.30;99.90;;;;;;5076301;28;20462;-78
2023/06/23 00:53:49;;;;;;;8.80;8.10;;;20.30;99.90;;;;;;5076170;28;20462;-78
2023/06/23 00:56:17;;;;;;;7.90;7.37;;;20.30;99.90;;;;;;5076466;28;20545;-77
2023/06/23 00:58:46;;;;;;;8.00;7.27;;;20.40;99.90;;;;;;5075794;28;20964;-78
2023/06/23 01:01:15;;;;;;;9.30;8.40;;;20.40;99.90;;;;;;5076459;28;20857;-78
2023/06/23 01:03:45;;;;;;;9.23;8.23;;;20.40;99.90;;;;;;5076015;28;20543;-78
2023/06/23 01:06:19;;;;;;;8.50;7.70;;;20.50;99.90;;;;;;5076052;28;20475;-78
2023/06/23 01:08:54;;;;;;;10.63;9.60;;;20.50;99.90;;;;;;5074507;28;20501;-78
2023/06/23 01:11:26;;;;;;;8.70;8.00;;;20.50;99.90;;;;;;5075916;28;20532;-78
2023/06/23 01:14:00;;;;;;;11.87;10.73;;;20.50;99.90;;;;;;5075845;28;20481;-78
2023/06/23 01:16:32;;;;;;;11.23;9.80;;;20.50;99.90;;;;;;5076111;28;20478;-78
2023/06/23 01:19:09;;;;;;;10.27;9.37;;;20.40;99.90;;;;;;5075565;28;20504;-77
2023/06/23 01:21:47;;;;;;;10.50;9.57;;;20.30;99.90;;;;;;5075823;28;20473;-78
2023/06/23 01:24:30;;;;;;;10.83;9.83;;;20.30;99.90;;;;;;5076068;28;20501;-79
2023/06/23 01:27:13;;;;;;;10.93;9.60;;;20.20;99.90;;;;;;5076021;28;20472;-78
2023/06/23 01:29:44;;;;;;;9.30;8.47;;;20.20;99.90;;;;;;5075073;28;20944;-78
2023/06/23 01:32:17;;;;;;;10.67;9.47;;;20.20;99.90;;;;;;5075855;28;20459;-78
2023/06/23 01:34:47;;;;;;;10.17;9.20;;;20.20;99.90;;;;;;5074987;28;20972;-78
2023/06/23 01:37:18;;;;;;;9.90;8.97;;;20.20;99.90;;;;;;5075693;28;20474;-78
2023/06/23 01:39:51;;;;;;;10.80;9.83;;;20.20;99.90;;;;;;5075378;28;20542;-78
2023/06/23 01:42:25;;;;;;;10.47;9.53;;;20.20;99.90;;;;;;5075833;28;20800;-77
2023/06/23 01:44:57;;;;;;;10.63;9.83;;;20.10;99.90;;;;;;5073580;28;21001;-78
2023/06/23 01:47:29;;;;;;;10.63;9.63;;;20.10;99.90;;;;;;5075326;28;20521;-78
2023/06/23 01:49:58;;;;;;;11.30;10.20;;;20.10;99.90;;;;;;5075123;28;20551;-78
2023/06/23 01:52:26;;;;;;;11.73;10.53;;;20.00;99.90;;;;;;5074554;28;20475;-78
2023/06/23 01:54:55;;;;;;;10.10;9.30;;;19.90;99.90;;;;;;5075229;28;20470;-78
2023/06/23 01:57:23;;;;;;;12.03;10.93;;;20.00;99.90;;;;;;5075082;28;20785;-78
2023/06/23 01:59:52;;;;;;;9.83;9.03;;;19.90;99.90;;;;;;5074813;28;20783;-78
2023/06/23 02:02:27;;;;;;;10.70;9.90;;;19.90;99.90;;;;;;5075651;28;20470;-78
2023/06/23 02:04:57;;;;;;;11.43;10.33;;;19.80;99.90;;;;;;5074792;28;20551;-78
2023/06/23 02:07:26;;;;;;;10.40;9.40;;;19.90;99.90;;;;;;5075304;28;20602;-78
2023/06/23 02:09:55;;;;;;;10.33;9.30;;;19.80;99.90;;;;;;5073978;28;20558;-78
2023/06/23 02:12:23;;;;;;;9.67;8.50;;;19.80;99.90;;;;;;5074753;28;20528;-78
2023/06/23 02:14:53;;;;;;;10.57;9.67;;;19.80;99.90;;;;;;5073856;28;20485;-78
2023/06/23 02:17:23;;;;;;;9.83;9.00;;;19.90;99.90;;;;;;5074701;28;20474;-78
2023/06/23 02:19:53;;;;;;;9.30;8.60;;;19.90;99.90;;;;;;5074266;28;20467;-78
2023/06/23 02:22:23;;;;;;;10.50;9.50;;;19.90;99.90;;;;;;5074418;28;20554;-78
2023/06/23 02:24:55;;;;;;;10.77;9.77;;;19.90;99.90;;;;;;5073684;28;20473;-78
2023/06/23 02:27:24;;;;;;;8.97;8.13;;;20.00;99.90;;;;;;5074488;28;20469;-78
2023/06/23 02:29:51;;;;;;;8.53;7.83;;;20.00;99.90;;;;;;5074237;28;20467;-79
2023/06/23 02:32:18;;;;;;;10.90;9.17;;;20.00;99.90;;;;;;5074391;28;20474;-77
2023/06/23 02:34:47;;;;;;;9.00;8.30;;;20.00;99.90;;;;;;5072804;28;20471;-78
2023/06/23 02:37:20;;;;;;;9.47;8.77;;;20.00;99.90;;;;;;5074307;28;20851;-78
2023/06/23 02:39:50;;;;;;;9.60;8.80;;;20.00;99.90;;;;;;5074026;28;20501;-78
2023/06/23 02:42:28;;;;;;;8.80;7.27;;;20.00;99.90;;;;;;5073968;28;20470;-78
2023/06/23 02:45:00;;;;;;;9.00;8.20;;;20.00;99.90;;;;;;5073512;28;20474;-78
2023/06/23 02:47:32;;;;;;;8.03;7.43;;;20.00;99.90;;;;;;5073532;28;20999;-78
2023/06/23 02:50:06;;;;;;;8.23;7.40;;;20.00;99.90;;;;;;5073785;28;20860;-78
2023/06/23 02:52:36;;;;;;;8.30;7.50;;;20.00;99.90;;;;;;5074020;28;21017;-78
2023/06/23 02:55:07;;;;;;;9.40;7.83;;;20.00;99.90;;;;;;5073722;28;20467;-78
2023/06/23 02:57:36;;;;;;;9.37;7.30;;;20.00;99.90;;;;;;5073442;28;20553;-77
2023/06/23 03:00:13;;;;;;;9.80;8.27;;;19.90;99.90;;;;;;5073592;28;20864;-78
2023/06/23 03:02:45;;;;;;;9.17;8.43;;;19.90;99.90;;;;;;5075230;28;20473;-78
2023/06/23 03:05:13;;;;;;;8.53;7.83;;;19.90;99.90;;;;;;5052983;28;20526;-77
2023/06/23 03:07:41;;;;;;;9.47;8.47;;;19.80;99.90;;;;;;5053262;28;20459;-78
2023/06/23 03:10:09;;;;;;;10.30;9.30;;;19.80;99.90;;;;;;5053556;28;20479;-78
2023/06/23 03:12:37;;;;;;;8.83;8.13;;;19.80;99.90;;;;;;5054179;28;20824;-78
2023/06/23 03:15:05;;;;;;;10.00;9.20;;;19.80;99.90;;;;;;5053313;28;20487;-78
2023/06/23 03:17:39;;;;;;;10.93;10.03;;;19.80;99.90;;;;;;5053580;28;20471;-78
2023/06/23 03:20:10;;;;;;;11.20;10.20;;;19.80;99.90;;;;;;5051895;28;20463;-78
2023/06/23 03:22:43;;;;;;;11.33;10.23;;;19.70;99.90;;;;;;5053548;28;20479;-78
2023/06/23 03:25:17;;;;;;;9.13;8.20;;;19.70;99.90;;;;;;5053073;28;20475;-78
2023/06/23 03:27:45;;;;;;;9.93;9.10;;;19.70;99.90;;;;;;5053760;28;20474;-78
2023/06/23 03:30:21;;;;;;;10.50;9.43;;;19.80;99.90;;;;;;5052827;28;20489;-78
2023/06/23 03:32:51;;;;;;;10.40;9.40;;;19.80;99.90;;;;;;5053458;28;20481;-78
2023/06/23 03:35:21;;;;;;;8.60;7.80;;;19.80;99.90;;;;;;5053001;28;20455;-78
2023/06/23 03:37:54;;;;;;;8.37;7.77;;;19.90;99.90;;;;;;5053491;28;20459;-78
2023/06/23 03:40:24;;;;;;;9.80;8.40;;;19.90;99.90;;;;;;5042154;28;20749;-77
2023/06/23 03:42:55;;;;;;;9.13;8.33;;;20.00;99.90;;;;;;5053434;28;20471;-78
2023/06/23 03:45:24;;;;;;;9.33;8.60;;;20.00;99.90;;;;;;5052520;28;20478;-78
2023/06/23 03:47:55;;;;;;;9.80;9.00;;;20.00;99.90;;;;;;5053429;28;20466;-78
2023/06/23 03:50:27;;;;;;;9.40;8.67;;;20.10;99.90;;;;;;5052923;28;20463;-76
2023/06/23 03:52:58;;;;;;;10.07;9.07;;;20.10;99.90;;;;;;5053069;28;20979;-77
2023/06/23 03:55:27;;;;;;;9.50;8.80;;;20.20;99.90;;;;;;5052700;28;20502;-77
2023/06/23 03:57:57;;;;;;;8.53;7.67;;;20.20;99.90;;;;;;5053469;28;20479;-77
2023/06/23 04:00:26;;;;;;;10.10;9.20;;;20.30;99.90;;;;;;5052876;28;20884;-77
2023/06/23 04:02:56;;;;;;;9.13;8.33;;;20.20;99.90;;;;;;5053122;28;21026;-77
2023/06/23 04:05:30;;;;;;;10.63;9.67;;;20.30;99.90;;;;;;5052477;28;20467;-76
2023/06/23 04:08:00;;;;;;;10.70;9.63;;;20.30;99.90;;;;;;5053285;28;20502;-76
2023/06/23 04:10:29;;;;;;;10.17;9.10;;;20.40;99.90;;;;;;5056771;28;20511;-77
2023/06/23 04:12:57;;;;;;;9.57;8.80;;;20.40;99.90;;;;;;5057430;28;20467;-77
2023/06/23 04:15:27;;;;;;;9.07;8.37;;;20.40;99.90;;;;;;5056658;28;20467;-78
2023/06/23 04:17:57;;;;;;;9.20;8.30;;;20.40;99.90;;;;;;5057160;28;20826;-76
2023/06/23 04:20:26;;;;;;;11.00;9.83;;;20.40;99.90;;;;;;5056240;28;20461;-78
2023/06/23 04:22:55;;;;;;;10.67;9.77;;;20.50;99.90;;;;;;5057030;28;20471;-76
2023/06/23 04:25:26;;;;;;;10.77;9.87;;;20.50;99.90;;;;;;5056230;28;20475;-77
2023/06/23 04:28:00;;;;;;;10.97;9.87;;;20.40;99.90;;;;;;5057211;28;20817;-77
2023/06/23 04:30:33;;;;;;;10.40;9.50;;;20.40;99.90;;;;;;5056961;28;20459;-77
2023/06/23 04:33:00;;;;;;;10.20;9.37;;;20.40;99.90;;;;;;5057209;28;20474;-76
2023/06/23 04:35:29;;;;;;;10.37;8.97;;;20.40;99.90;;;;;;5056231;28;20455;-76
2023/06/23 04:38:02;;;;;;;9.10;8.20;;;20.40;99.90;;;;;;5057081;28;20506;-76
2023/06/23 04:40:38;;;;;;;10.50;9.60;;;20.40;99.90;;;;;;5056068;28;20486;-77
2023/06/23 04:43:09;;;;;;;10.13;9.23;;;20.40;99.90;;;;;;5056213;28;20542;-77
2023/06/23 04:45:40;;;;;;;10.27;9.27;;;20.40;99.90;;;;;;5056413;28;20479;-76
2023/06/23 04:48:11;;;;;;;9.40;8.50;;;20.40;99.90;;;;;;5056081;28;20475;-76
2023/06/23 04:50:40;;;;;;;10.77;9.67;;;20.40;99.90;;;;;;5056290;28;20467;-76
2023/06/23 04:53:14;;;;;;;12.17;11.07;;;20.40;99.90;;;;;;5055892;28;20463;-77
2023/06/23 04:55:46;;;;;;;11.77;10.70;;;20.40;99.90;;;;;;5056281;28;20462;-76
2023/06/23 04:58:15;;;;;;;9.70;8.90;;;20.40;99.90;;;;;;5055442;28;20482;-76
2023/06/23 05:00:43;;;;;;;10.70;9.03;;;20.40;99.90;;;;;;5056133;28;20819;-76
2023/06/23 05:03:11;;;;;;;11.43;10.17;;;20.40;99.90;;;;;;5055617;28;20550;-76
2023/06/23 05:05:41;;;;;;;9.90;9.10;;;20.30;99.90;;;;;;5056208;28;20479;-76
2023/06/23 05:08:10;;;;;;;8.93;8.23;;;20.40;99.90;;;;;;5055883;28;20468;-78
2023/06/23 05:10:38;;;;;;;9.17;8.30;;;20.40;99.90;;;;;;5056070;28;20847;-78
2023/06/23 05:13:11;;;;;;;9.60;8.70;;;20.40;99.90;;;;;;5053249;28;21049;-77
2023/06/23 05:15:38;;;;;;;11.07;9.97;;;20.40;99.90;;;;;;5055909;28;20800;-77
2023/06/23 05:18:08;;;;;;;11.30;9.33;;;20.40;99.90;;;;;;5056176;28;20478;-77
2023/06/23 05:20:39;;;;;;;10.60;9.70;;;20.40;99.90;;;;;;5053929;28;20543;-77
2023/06/23 05:23:10;;;;;;;11.60;10.60;;;20.40;99.90;;;;;;5056128;28;20483;-78
2023/06/23 05:25:41;;;;;;;12.30;11.20;;;20.40;99.90;;;;;;5055808;28;20463;-77
2023/06/23 05:28:12;;;;;;;9.10;8.30;;;20.40;99.90;;;;;;5056097;28;20471;-76
2023/06/23 05:30:41;;;;;;;9.00;8.20;;;20.40;99.90;;;;;;5055084;28;20467;-76
2023/06/23 05:33:10;;;;;;;9.97;8.97;;;20.40;99.90;;;;;;5055745;28;20482;-77
2023/06/23 05:35:38;;;;;;;8.63;7.93;;;20.40;99.90;;;;;;5054615;28;20517;-76
2023/06/23 05:38:08;;;;;;;9.77;9.00;;;20.40;99.90;;;;;;5055730;28;20475;-76
2023/06/23 05:40:35;;;;;;;10.50;9.60;;;20.40;99.90;;;;;;5055307;28;20493;-77
2023/06/23 05:43:02;;;;;;;9.40;8.50;;;20.40;99.90;;;;;;5055641;28;20471;-78
2023/06/23 05:45:31;;;;;;;11.00;10.00;;;20.40;99.90;;;;;;5055418;28;20538;-77
2023/06/23 05:48:03;;;;;;;11.00;9.93;;;20.40;99.90;;;;;;5056284;28;20502;-78
2023/06/23 05:50:34;;;;;;;9.70;8.97;;;20.40;99.90;;;;;;5055269;28;20477;-77
2023/06/23 05:53:07;;;;;;;11.30;10.40;;;20.40;99.90;;;;;;5055826;28;20467;-77
2023/06/23 05:55:39;;;;;;;9.77;8.97;;;20.40;99.90;;;;;;5055433;28;20559;-78
2023/06/23 05:58:09;;;;;;;11.83;10.63;;;20.30;99.90;;;;;;5055973;28;20490;-78
2023/06/23 06:00:46;;;;;;;12.03;9.77;;;20.30;99.90;;;;;;5055322;28;20497;-77
2023/06/23 06:03:16;;;;;;;8.83;8.13;;;20.30;99.90;;;;;;5055708;28;20925;-78
2023/06/23 06:05:51;;;;;;;11.27;10.37;;;20.30;99.90;;;;;;5055107;28;20463;-78
2023/06/23 06:08:18;;;;;;;11.77;10.50;;;20.30;99.90;;;;;;5055525;28;20477;-77
2023/06/23 06:10:47;;;;;;;10.47;9.50;;;20.30;99.90;;;;;;5075336;28;20892;-77
2023/06/23 06:13:17;;;;;;;11.73;10.63;;;20.30;99.90;;;;;;5075931;28;20466;-78
2023/06/23 06:15:46;;;;;;;10.43;9.47;;;20.30;99.90;;;;;;5075060;28;20563;-78
2023/06/23 06:18:16;;;;;;;10.77;9.77;;;20.30;99.90;;;;;;5075214;28;20535;-78
2023/06/23 06:20:47;;;;;;;10.40;9.60;;;20.30;99.90;;;;;;5074510;28;20455;-80
2023/06/23 06:23:16;;;;;;;9.90;9.10;;;20.30;99.90;;;;;;5064289;28;20463;-77
2023/06/23 06:25:44;;;;;;;11.60;10.70;;;20.30;99.90;;;;;;5074589;28;20535;-78
2023/06/23 06:28:14;;;;;;;10.07;9.13;;;20.30;99.90;;;;;;5064320;28;20569;-76
2023/06/23 06:30:43;;;;;;;9.43;8.73;;;20.30;99.90;;;;;;5072957;28;20470;-77
2023/06/23 06:33:13;;;;;;;10.80;9.80;;;20.30;99.90;;;;;;5074128;28;20470;-77
2023/06/23 06:35:42;;;;;;;11.80;10.70;;;20.30;99.90;;;;;;5073953;28;20472;-76
2023/06/23 06:38:10;;;;;;;12.63;11.00;;;20.30;99.90;;;;;;5074552;28;20861;-77
2023/06/23 06:40:41;;;;;;;10.13;9.30;;;20.20;99.90;;;;;;5074637;28;20466;-77
2023/06/23 06:43:08;;;;;;;12.10;10.87;;;20.20;99.90;;;;;;5073487;28;20471;-76
2023/06/23 06:45:35;;;;;;;11.63;10.67;;;20.20;99.90;;;;;;5073829;28;20463;-77
2023/06/23 06:48:12;;;;;;;11.80;10.80;;;20.30;99.90;;;;;;5074636;28;20523;-77
2023/06/23 06:50:45;;;;;;;12.87;11.67;;;20.30;99.90;;;;;;5074869;28;20543;-79
2023/06/23 06:53:13;;;;;;;10.80;10.00;;;20.30;99.90;;;;;;5075277;28;20477;-77
2023/06/23 06:55:41;;;;;;;11.23;10.13;;;20.30;99.90;;;;;;5078193;28;20528;-77
2023/06/23 06:58:09;;;;;;;14.03;10.90;;;20.30;99.90;;;;;;5075654;28;20816;-78
2023/06/23 07:00:37;;;;;;;10.73;9.83;;;20.30;99.90;;;;;;5073589;28;20474;-77
2023/06/23 07:03:08;;;;;;;11.03;10.03;;;20.40;99.90;;;;;;5074333;28;20963;-78
2023/06/23 07:05:35;;;;;;;13.57;12.37;;;20.40;99.90;;;;;;5073267;28;20553;-77
2023/06/23 07:08:05;;;;;;;11.67;10.67;;;20.40;99.90;;;;;;5075208;28;20458;-78
2023/06/23 07:10:33;;;;;;;13.17;12.07;;;20.50;99.90;;;;;;5075590;28;20470;-77
2023/06/23 07:13:03;;;;;;;11.70;10.70;;;20.50;99.90;;;;;;5075666;28;20471;-77
2023/06/23 07:15:31;;;;;;;14.10;12.77;;;20.50;99.90;;;;;;5074119;28;20469;-78
2023/06/23 07:17:59;;;;;;;12.03;11.00;;;20.50;99.90;;;;;;5073487;28;20463;-77
2023/06/23 07:20:29;;;;;;;10.23;9.40;;;20.50;99.90;;;;;;5074581;28;20466;-78
2023/06/23 07:22:57;;;;;;;11.70;10.60;;;20.60;99.90;;;;;;5072984;28;20939;-77
2023/06/23 07:25:27;;;;;;;10.10;9.10;;;20.70;99.90;;;;;;5073379;28;20524;-77
2023/06/23 07:27:54;;;;;;;12.63;11.40;;;20.70;99.90;;;;;;5073764;28;20567;-78
2023/06/23 07:30:21;;;;;;;10.13;9.33;;;20.80;99.90;;;;;;5073884;28;20568;-79
2023/06/23 07:32:51;;;;;;;11.97;10.97;;;20.80;99.90;;;;;;5073695;28;20860;-77
2023/06/23 07:35:18;;;;;;;11.47;10.50;;;20.80;99.90;;;;;;5073440;28;20466;-78
2023/06/23 07:37:48;;;;;;;11.47;10.47;;;20.80;99.90;;;;;;5073259;28;20535;-78
2023/06/23 07:40:15;;;;;;;11.57;10.57;;;20.90;99.90;;;;;;5073674;28;20481;-77
2023/06/23 07:42:43;;;;;;;13.70;12.40;;;20.90;99.90;;;;;;5073254;28;20462;-78
2023/06/23 07:45:13;;;;;;;11.90;10.80;;;20.90;99.90;;;;;;5073268;28;20470;-77
2023/06/23 07:47:40;;;;;;;11.87;10.90;;;20.90;99.90;;;;;;5073357;28;20524;-77
2023/06/23 07:50:11;;;;;;;13.00;11.80;;;20.90;99.90;;;;;;5073996;28;20469;-77
2023/06/23 07:52:38;;;;;;;13.57;12.47;;;20.90;99.90;;;;;;5072931;28;20473;-78
2023/06/23 07:55:05;;;;;;;12.00;11.00;;;20.90;99.90;;;;;;5073254;28;20470;-78
2023/06/23 08:00:30;;;;;;;10.97;9.97;;;20.90;99.90;;;;;;5065632;28;20814;-79
2023/06/23 08:02:57;;;;;;;10.30;9.43;;;20.90;99.90;;;;;;5073792;28;20529;-78
2023/06/23 08:05:24;;;;;;;11.60;10.60;;;20.90;99.90;;;;;;5072831;28;20553;-79
2023/06/23 08:07:52;;;;;;;13.90;12.70;;;20.80;99.90;;;;;;5073542;28;20474;-78
2023/06/23 08:10:19;;;;;;;11.63;10.63;;;20.80;99.90;;;;;;5063030;28;20810;-78
2023/06/23 08:12:46;;;;;;;11.87;10.77;;;20.70;99.90;;;;;;5072295;28;20545;-78
2023/06/23 08:15:13;;;;;;;13.33;12.20;;;20.70;99.90;;;;;;5062752;28;20812;-79
2023/06/23 08:17:41;;;;;;;13.83;12.50;;;20.70;99.90;;;;;;5072423;28;20466;-79
2023/06/23 08:20:10;;;;;;;14.17;12.77;;;20.70;99.90;;;;;;5073181;28;20478;-78
2023/06/23 08:22:39;;;;;;;13.93;12.63;;;20.70;99.90;;;;;;5072741;28;20506;-78
2023/06/23 08:25:08;;;;;;;16.30;14.80;;;20.70;99.90;;;;;;5073043;28;20960;-78
2023/06/23 08:27:35;;;;;;;14.20;13.10;;;20.60;99.90;;;;;;5072658;28;20474;-78
2023/06/23 08:30:03;;;;;;;13.87;12.77;;;20.60;99.90;;;;;;5073349;28;20458;-78
2023/06/23 08:32:29;;;;;;;14.93;13.63;;;20.60;99.90;;;;;;5073300;28;20551;-78
2023/06/23 08:34:58;;;;;;;15.57;13.17;;;20.50;99.90;;;;;;5072569;28;20473;-78
2023/06/23 08:37:25;;;;;;;13.50;12.40;;;20.50;99.90;;;;;;5062425;28;20474;-78
2023/06/23 08:39:52;;;;;;;13.87;12.67;;;20.50;99.90;;;;;;5071698;28;20856;-78
2023/06/23 08:42:20;;;;;;;12.20;11.20;;;20.50;99.90;;;;;;5073162;28;20470;-78
2023/06/23 08:44:49;;;;;;;15.87;14.50;;;20.50;99.90;;;;;;5072580;28;20462;-78
2023/06/23 08:47:20;;;;;;;14.10;12.80;;;20.40;99.90;;;;;;5073348;28;20450;-78
2023/06/23 08:49:51;;;;;;;16.23;14.93;;;20.50;99.90;;;;;;5072479;28;20528;-78
2023/06/23 08:52:20;;;;;;;17.30;15.97;;;20.50;99.90;;;;;;5072947;28;20477;-78
2023/06/23 08:54:47;;;;;;;15.40;14.23;;;20.50;99.90;;;;;;5074271;28;20473;-78
2023/06/23 08:57:15;;;;;;;16.13;14.73;;;20.50;99.90;;;;;;5076205;28;20466;-79
2023/06/23 08:59:42;;;;;;;16.50;15.20;;;20.40;99.90;;;;;;5075749;28;20465;-78
2023/06/23 09:02:09;;;;;;;18.10;16.70;;;20.40;99.90;;;;;;5075971;28;20466;-78
2023/06/23 09:04:36;;;;;;;16.30;14.90;;;20.40;99.90;;;;;;5076056;28;20466;-78
2023/06/23 09:07:03;;;;;;;18.30;16.80;;;20.40;99.90;;;;;;5076066;28;20466;-79
2023/06/23 09:09:32;;;;;;;15.23;14.10;;;20.40;99.90;;;;;;5076486;28;20524;-78
2023/06/23 09:12:00;;;;;;;15.93;14.67;;;20.40;99.90;;;;;;5075595;28;20897;-78
2023/06/23 09:14:30;;;;;;;16.30;15.10;;;20.40;99.90;;;;;;5076034;28;20470;-79
2023/06/23 09:16:58;;;;;;;17.63;16.23;;;20.40;99.90;;;;;;5075751;28;20540;-78
2023/06/23 09:19:30;;;;;;;20.03;18.53;;;20.40;99.90;;;;;;5076091;28;20535;-78
2023/06/23 09:21:57;;;;;;;20.27;18.67;;;20.30;99.90;;;;;;5065598;28;20976;-78
2023/06/23 09:24:25;;;;;;;20.83;19.23;;;20.40;99.90;;;;;;5075189;28;21108;-78
2023/06/23 09:26:55;;;;;;;23.23;21.33;;;20.30;99.90;;;;;;5075318;28;20477;-78
2023/06/23 09:29:26;;;;;;;22.20;20.50;;;20.30;99.90;;;;;;5075848;28;20474;-77
2023/06/23 09:31:54;;;;;;;21.73;19.90;;;20.30;99.90;;;;;;5081080;28;20476;-78
2023/06/23 09:34:26;;;;;;;20.97;19.13;;;20.30;99.90;;;;;;5078971;28;20466;-78
2023/06/23 09:36:54;;;;;;;22.40;20.50;;;20.30;99.90;;;;;;5075674;28;20845;-78
2023/06/23 09:39:24;;;;;;;24.27;22.07;;;20.30;99.90;;;;;;5075833;28;20508;-78
2023/06/23 09:41:57;;;;;;;25.73;23.60;;;20.30;99.90;;;;;;5075256;28;20467;-78
2023/06/23 09:44:34;;;;;;;27.00;24.50;;;20.30;99.90;;;;;;5075529;28;20462;-79
2023/06/23 09:47:02;;;;;;;25.60;23.40;;;20.20;99.90;;;;;;5074559;28;20478;-78
2023/06/23 09:49:29;;;;;;;23.33;21.43;;;20.20;99.90;;;;;;5075521;28;20466;-78
2023/06/23 09:51:56;;;;;;;27.10;24.80;;;20.20;99.90;;;;;;5075070;28;20497;-78
2023/06/23 09:54:34;;;;;;;26.13;23.73;;;20.20;99.90;;;;;;5074695;28;20477;-78
2023/06/23 09:57:09;;;;;;;28.70;26.00;;;20.20;99.90;;;;;;5074992;28;20485;-78
2023/06/23 09:59:39;;;;;;;24.93;22.80;;;20.20;99.90;;;;;;5075557;28;20481;-78
2023/06/23 10:02:07;;;;;;;23.63;21.63;;;20.20;99.90;;;;;;5074697;28;20909;-78
2023/06/23 10:04:34;;;;;;;29.70;27.00;;;20.20;99.90;;;;;;5075180;28;20466;-78
2023/06/23 10:07:19;;;;;;;27.80;25.50;;;20.20;99.90;;;;;;5074397;28;20470;-78
2023/06/23 10:09:50;;;;;;;29.33;26.83;;;20.20;99.90;;;;;;5074584;28;20502;-78
2023/06/23 10:12:21;;;;;;;26.80;24.60;;;20.20;99.90;;;;;;5074938;28;20493;-78
2023/06/23 10:14:49;;;;;;;29.73;27.20;;;20.20;99.90;;;;;;5074130;28;20466;-78
2023/06/23 10:17:16;;;;;;;29.07;26.47;;;20.20;99.90;;;;;;5074849;28;20466;-78
2023/06/23 10:19:51;;;;;;;26.50;24.10;;;20.20;99.90;;;;;;5074797;28;20807;-78
2023/06/23 10:22:19;;;;;;;28.07;25.67;;;20.20;99.90;;;;;;5074569;28;20533;-78
2023/06/23 10:24:47;;;;;;;28.57;25.97;;;20.20;99.90;;;;;;5074849;28;20470;-78
2023/06/23 10:27:17;;;;;;;28.80;26.37;;;20.20;99.90;;;;;;5074339;28;20474;-77
2023/06/23 10:29:56;;;;;;;29.43;26.73;;;20.10;99.90;;;;;;5074574;28;20871;-77
2023/06/23 10:32:26;;;;;;;27.33;25.03;;;20.10;99.90;;;;;;5073903;28;20473;-78
2023/06/23 10:34:57;;;;;;;27.60;25.23;;;20.20;99.90;;;;;;5074820;28;20480;-78
2023/06/23 10:37:27;;;;;;;24.30;22.10;;;20.20;99.90;;;;;;5073975;28;20975;-78
2023/06/23 10:40:02;;;;;;;27.00;24.60;;;20.30;99.90;;;;;;5074613;28;20532;-78
2023/06/23 10:42:32;;;;;;;25.30;23.10;;;20.30;99.90;;;;;;5054804;28;20489;-77
2023/06/23 10:45:01;;;;;;;24.93;22.83;;;20.40;99.90;;;;;;5055492;28;20808;-78
2023/06/23 10:47:29;;;;;;;28.03;25.53;;;20.40;99.90;;;;;;5053349;28;20529;-78
2023/06/23 10:49:57;;;;;;;27.97;25.50;;;20.40;99.90;;;;;;5054660;28;20526;-78
2023/06/23 10:52:26;;;;;;;26.50;24.20;;;20.40;99.90;;;;;;5053966;28;20862;-78
2023/06/23 10:54:57;;;;;;;26.60;24.40;;;20.40;99.90;;;;;;5054333;28;20987;-77
2023/06/23 10:57:25;;;;;;;24.27;22.47;;;20.40;99.90;;;;;;5053506;28;20478;-78
2023/06/23 11:00:04;;;;;;;24.80;22.50;;;20.40;99.90;;;;;;5054053;28;20475;-78
2023/06/23 11:02:40;;;;;;;23.27;21.37;;;20.40;99.90;;;;;;5053139;28;20757;-78
2023/06/23 11:05:16;;;;;;;25.37;23.20;;;20.50;99.90;;;;;;5053927;28;20467;-78
2023/06/23 11:08:01;;;;;;;24.80;22.60;;;20.40;99.90;;;;;;5053946;28;20469;-78
2023/06/23 11:10:47;;;;;;;23.33;21.20;;;20.40;99.90;;;;;;5054057;28;20463;-78
2023/06/23 11:13:20;;;;;;;30.07;26.90;;;20.50;99.90;;;;;;5053746;28;20474;-77
2023/06/23 11:15:54;;;;;;;28.70;26.37;;;20.50;99.90;;;;;;5053427;28;20485;-77
2023/06/23 11:18:24;;;;;;;30.50;27.70;;;20.40;99.90;;;;;;5053159;28;20459;-78
2023/06/23 11:20:58;;;;;;;30.87;28.10;;;20.50;99.90;;;;;;5053290;28;20926;-77
2023/06/23 11:23:26;;;;;;;30.93;28.33;;;20.40;99.90;;;;;;5053165;28;20575;-77
2023/06/23 11:25:56;;;;;;;30.03;27.53;;;20.40;99.90;;;;;;5052519;28;20463;-78
2023/06/23 11:28:37;;;;;;;32.50;29.80;;;20.40;99.90;;;;;;5053094;28;20463;-76
2023/06/23 11:31:08;;;;;;;31.10;28.40;;;20.40;99.90;;;;;;5052505;28;20537;-76
2023/06/23 11:33:38;;;;;;;28.13;25.80;;;20.40;99.90;;;;;;5053989;28;20459;-77
2023/06/23 11:36:09;;;;;;;35.80;32.57;;;20.40;99.90;;;;;;5061135;28;20470;-77
2023/06/23 11:38:39;;;;;;;31.03;28.40;;;20.40;99.90;;;;;;5060699;28;20471;-76
2023/06/23 11:41:07;;;;;;;32.53;29.87;;;20.40;99.90;;;;;;5072111;28;20501;-78
2023/06/23 11:43:38;;;;;;;36.03;32.93;;;20.40;99.90;;;;;;5072861;28;20481;-78
2023/06/23 11:46:12;;;;;;;36.17;33.07;;;20.40;99.90;;;;;;5072711;28;20551;-77
2023/06/23 11:48:50;;;;;;;30.77;28.17;;;20.50;99.90;;;;;;5073182;28;20474;-77
2023/06/23 11:51:24;;;;;;;35.33;32.33;;;20.40;99.90;;;;;;5053688;28;20473;-77
2023/06/23 11:53:53;;;;;;;33.77;30.90;;;20.50;99.90;;;;;;5045405;28;20462;-76
2023/06/23 11:56:23;;;;;;;31.63;29.00;;;20.40;99.90;;;;;;5064459;28;20481;-77
2023/06/23 11:58:55;;;;;;;29.27;26.87;;;20.40;99.90;;;;;;5071377;28;25348;-76
2023/06/23 12:01:24;;;;;;;31.87;29.17;;;20.40;99.90;;;;;;5072567;28;20535;-77
2023/06/23 12:03:55;;;;;;;25.87;23.53;;;20.40;99.90;;;;;;5061866;28;20472;-77
2023/06/23 12:06:24;;;;;;;25.80;23.20;;;20.40;99.90;;;;;;5071737;28;20548;-78
2023/06/23 12:08:57;;;;;;;19.73;17.73;;;20.40;99.90;;;;;;5063663;28;20982;-78
2023/06/23 12:11:26;;;;;;;17.50;16.00;;;20.30;99.90;;;;;;5073255;28;21048;-78
2023/06/23 12:13:54;;;;;;;16.67;15.37;;;20.30;99.90;;;;;;5073083;28;20470;-78
2023/06/23 12:16:21;;;;;;;15.07;13.33;;;20.30;99.90;;;;;;5072901;28;20482;-76
2023/06/23 12:18:51;;;;;;;12.67;11.53;;;20.30;99.90;;;;;;5071626;28;20474;-78
2023/06/23 12:21:20;;;;;;;13.37;11.97;;;20.30;99.90;;;;;;5073390;28;20466;-76
2023/06/23 12:23:47;;;;;;;11.40;10.20;;;20.20;99.90;;;;;;5071842;28;20493;-77
2023/06/23 12:26:15;;;;;;;12.10;11.00;;;20.20;99.90;;;;;;5073042;28;20470;-77
2023/06/23 12:28:42;;;;;;;15.73;10.50;;;20.10;99.90;;;;;;5072714;28;20462;-77
2023/06/23 12:31:09;;;;;;;12.63;11.00;;;20.00;99.90;;;;;;5077020;28;20531;-77
2023/06/23 12:33:41;;;;;;;11.83;10.73;;;19.90;99.90;;;;;;5078370;28;21021;-76
2023/06/23 12:36:16;;;;;;;11.43;9.80;;;19.80;99.90;;;;;;5056769;28;20901;-78
2023/06/23 12:38:53;;;;;;;9.43;8.53;;;19.80;99.90;;;;;;5056389;28;20979;-79
2023/06/23 12:41:23;;;;;;;12.13;11.03;;;19.80;99.90;;;;;;5070411;28;20462;-76
2023/06/23 12:43:52;;;;;;;8.70;7.90;;;19.80;99.90;;;;;;5076434;28;20471;-77
2023/06/23 12:46:23;;;;;;;9.77;8.70;;;19.70;99.90;;;;;;5077035;28;20549;-78
2023/06/23 12:48:53;;;;;;;10.40;9.30;;;19.70;99.90;;;;;;5076099;28;20540;-80
2023/06/23 12:51:32;;;;;;;9.00;8.10;;;19.60;99.90;;;;;;5067382;28;20481;-77